sensor_id;sensor_type;location;lat;lon;timestamp;temperature;humidity
3638;DHT22;1835;50.068;8.154;2023-04-01T00:01:01;11.00;99.90
3638;DHT22;1835;50.068;8.154;2023-04-01T00:03:34;10.90;99.90
3638;DHT22;1835;50.068;8.154;2023-04-01T00:06:03;11.00;99.90
3638;DHT22;1835;50.068;8.154;2023-04-01T00:08:31;10.90;99.90
3638;DHT22;1835;50.068;8.154;2023-04-01T00:10:59;11.10;99.90
3638;DHT22;1835;50.068;8.154;2023-04-01T00:13:28;11.10;99.90
3638;DHT22;1835;50.068;8.154;2023-04-01T00:15:56;11.00;99.90
3638;DHT22;1835;50.068;8.154;2023-04-01T00:18:26;11.00;99.90
3638;DHT22;1835;50.068;8.154;2023-04-01T00:20:55;10.90;99.90
3638;DHT22;1835;50.068;8.154;2023-04-01T00:23:23;10.90;99.90
3638;DHT22;1835;50.068;8.154;2023-04-01T00:25:52;11.00;99.90
3638;DHT22;1835;50.068;8.154;2023-04-01T00:28:20;11.10;99.90
3638;DHT22;1835;50.068;8.154;2023-04-01T00:30:48;11.00;99.90
3638;DHT22;1835;50.068;8.154;2023-04-01T00:33:16;10.90;99.90
3638;DHT22;1835;50.068;8.154;2023-04-01T00:35:44;10.80;99.90
3638;DHT22;1835;50.068;8.154;2023-04-01T00:38:14;10.80;99.90
3638;DHT22;1835;50.068;8.154;2023-04-01T00:40:45;10.80;99.90
3638;DHT22;1835;50.068;8.154;2023-04-01T00:43:15;10.90;99.90
3638;DHT22;1835;50.068;8.154;2023-04-01T00:45:48;10.80;99.90
3638;DHT22;1835;50.068;8.154;2023-04-01T00:48:18;10.70;99.90
3638;DHT22;1835;50.068;8.154;2023-04-01T00:50:50;10.60;99.90
3638;DHT22;1835;50.068;8.154;2023-04-01T00:53:21;10.80;99.90
3638;DHT22;1835;50.068;8.154;2023-04-01T00:55:54;10.80;99.90
3638;DHT22;1835;50.068;8.154;2023-04-01T00:58:27;10.90;99.90
3638;DHT22;1835;50.068;8.154;2023-04-01T01:00:59;10.90;99.90
3638;DHT22;1835;50.068;8.154;2023-04-01T01:03:28;10.90;99.90
3638;DHT22;1835;50.068;8.154;2023-04-01T01:06:11;10.80;99.90
3638;DHT22;1835;50.068;8.154;2023-04-01T01:09:10;10.90;99.90
3638;DHT22;1835;50.068;8.154;2023-04-01T01:11:43;10.90;99.90
3638;DHT22;1835;50.068;8.154;2023-04-01T01:14:25;10.90;99.90
3638;DHT22;1835;50.068;8.154;2023-04-01T01:17:09;10.90;99.90
3638;DHT22;1835;50.068;8.154;2023-04-01T01:20:03;10.90;99.90
3638;DHT22;1835;50.068;8.154;2023-04-01T01:23:15;11.00;99.90
3638;DHT22;1835;50.068;8.154;2023-04-01T01:26:40;10.90;99.90
3638;DHT22;1835;50.068;8.154;2023-04-01T01:29:28;10.90;99.90
3638;DHT22;1835;50.068;8.154;2023-04-01T01:32:24;11.00;99.90
3638;DHT22;1835;50.068;8.154;2023-04-01T01:35:16;10.80;99.90
3638;DHT22;1835;50.068;8.154;2023-04-01T01:37:50;10.90;99.90
3638;DHT22;1835;50.068;8.154;2023-04-01T01:40:20;10.70;99.90
3638;DHT22;1835;50.068;8.154;2023-04-01T01:42:51;10.90;99.90
3638;DHT22;1835;50.068;8.154;2023-04-01T01:45:23;10.80;99.90
3638;DHT22;1835;50.068;8.154;2023-04-01T01:47:55;10.80;99.90
3638;DHT22;1835;50.068;8.154;2023-04-01T01:50:26;10.80;99.90
3638;DHT22;1835;50.068;8.154;2023-04-01T01:53:02;11.00;99.90
3638;DHT22;1835;50.068;8.154;2023-04-01T01:55:34;10.80;99.90
3638;DHT22;1835;50.068;8.154;2023-04-01T01:58:08;10.90;99.90
3638;DHT22;1835;50.068;8.154;2023-04-01T02:00:38;10.80;99.90
3638;DHT22;1835;50.068;8.154;2023-04-01T02:03:07;10.80;99.90
3638;DHT22;1835;50.068;8.154;2023-04-01T02:05:37;10.70;99.90
3638;DHT22;1835;50.068;8.154;2023-04-01T02:08:07;10.60;99.90
3638;DHT22;1835;50.068;8.154;2023-04-01T02:10:37;10.60;99.90
3638;DHT22;1835;50.068;8.154;2023-04-01T02:13:13;10.60;99.90
3638;DHT22;1835;50.068;8.154;2023-04-01T02:15:47;10.60;99.90
3638;DHT22;1835;50.068;8.154;2023-04-01T02:18:18;10.60;99.90
3638;DHT22;1835;50.068;8.154;2023-04-01T02:20:49;10.60;99.90
3638;DHT22;1835;50.068;8.154;2023-04-01T02:23:18;10.60;99.90
3638;DHT22;1835;50.068;8.154;2023-04-01T02:25:47;10.70;99.90
3638;DHT22;1835;50.068;8.154;2023-04-01T02:28:17;10.60;99.90
3638;DHT22;1835;50.068;8.154;2023-04-01T02:30:48;10.60;99.90
3638;DHT22;1835;50.068;8.154;2023-04-01T02:33:19;10.70;99.90
3638;DHT22;1835;50.068;8.154;2023-04-01T02:35:49;10.60;99.90
3638;DHT22;1835;50.068;8.154;2023-04-01T02:38:17;10.70;99.90
3638;DHT22;1835;50.068;8.154;2023-04-01T02:40:48;10.70;99.90
3638;DHT22;1835;50.068;8.154;2023-04-01T02:43:17;10.80;99.90
3638;DHT22;1835;50.068;8.154;2023-04-01T02:45:46;10.50;99.90
3638;DHT22;1835;50.068;8.154;2023-04-01T02:48:14;10.60;99.90
3638;DHT22;1835;50.068;8.154;2023-04-01T02:50:42;10.50;99.90
3638;DHT22;1835;50.068;8.154;2023-04-01T02:53:12;10.40;99.90
3638;DHT22;1835;50.068;8.154;2023-04-01T02:55:40;10.30;99.90
3638;DHT22;1835;50.068;8.154;2023-04-01T02:58:08;10.40;99.90
3638;DHT22;1835;50.068;8.154;2023-04-01T03:00:36;10.40;99.90
3638;DHT22;1835;50.068;8.154;2023-04-01T03:03:04;10.50;99.90
3638;DHT22;1835;50.068;8.154;2023-04-01T03:05:33;10.60;99.90
3638;DHT22;1835;50.068;8.154;2023-04-01T03:08:02;10.60;99.90
3638;DHT22;1835;50.068;8.154;2023-04-01T03:10:31;10.60;99.90
3638;DHT22;1835;50.068;8.154;2023-04-01T03:12:59;10.40;99.90
3638;DHT22;1835;50.068;8.154;2023-04-01T03:15:28;10.60;99.90
3638;DHT22;1835;50.068;8.154;2023-04-01T03:17:56;10.40;99.90
3638;DHT22;1835;50.068;8.154;2023-04-01T03:20:24;10.30;99.90
3638;DHT22;1835;50.068;8.154;2023-04-01T03:22:52;10.30;99.90
3638;DHT22;1835;50.068;8.154;2023-04-01T03:25:21;10.30;99.90
3638;DHT22;1835;50.068;8.154;2023-04-01T03:27:50;10.30;99.90
3638;DHT22;1835;50.068;8.154;2023-04-01T03:30:18;10.40;99.90
3638;DHT22;1835;50.068;8.154;2023-04-01T03:32:46;10.50;99.90
3638;DHT22;1835;50.068;8.154;2023-04-01T03:35:15;10.50;99.90
3638;DHT22;1835;50.068;8.154;2023-04-01T03:37:43;10.60;99.90
3638;DHT22;1835;50.068;8.154;2023-04-01T03:40:11;10.50;99.90
3638;DHT22;1835;50.068;8.154;2023-04-01T03:42:39;10.60;99.90
3638;DHT22;1835;50.068;8.154;2023-04-01T03:45:10;10.50;99.90
3638;DHT22;1835;50.068;8.154;2023-04-01T03:47:38;10.40;99.90
3638;DHT22;1835;50.068;8.154;2023-04-01T03:50:08;10.40;99.90
3638;DHT22;1835;50.068;8.154;2023-04-01T03:52:36;10.40;99.90
3638;DHT22;1835;50.068;8.154;2023-04-01T03:55:05;10.50;99.90
3638;DHT22;1835;50.068;8.154;2023-04-01T03:57:34;10.60;99.90
3638;DHT22;1835;50.068;8.154;2023-04-01T04:00:02;10.70;99.90
3638;DHT22;1835;50.068;8.154;2023-04-01T04:02:32;10.70;99.90
3638;DHT22;1835;50.068;8.154;2023-04-01T04:05:00;10.60;99.90
3638;DHT22;1835;50.068;8.154;2023-04-01T04:07:29;10.50;99.90
3638;DHT22;1835;50.068;8.154;2023-04-01T04:09:57;10.30;99.90
3638;DHT22;1835;50.068;8.154;2023-04-01T04:12:25;10.40;99.90
3638;DHT22;1835;50.068;8.154;2023-04-01T04:14:53;10.40;99.90
3638;DHT22;1835;50.068;8.154;2023-04-01T04:17:21;10.50;99.90
3638;DHT22;1835;50.068;8.154;2023-04-01T04:19:50;10.50;99.90
3638;DHT22;1835;50.068;8.154;2023-04-01T04:22:18;10.40;99.90
3638;DHT22;1835;50.068;8.154;2023-04-01T04:24:46;10.50;99.90
3638;DHT22;1835;50.068;8.154;2023-04-01T04:27:14;10.50;99.90
3638;DHT22;1835;50.068;8.154;2023-04-01T04:29:42;10.50;99.90
3638;DHT22;1835;50.068;8.154;2023-04-01T04:32:10;10.30;99.90
3638;DHT22;1835;50.068;8.154;2023-04-01T04:34:39;10.40;99.90
3638;DHT22;1835;50.068;8.154;2023-04-01T04:37:08;10.50;99.90
3638;DHT22;1835;50.068;8.154;2023-04-01T04:39:36;10.50;99.90
3638;DHT22;1835;50.068;8.154;2023-04-01T04:42:05;10.50;99.90
3638;DHT22;1835;50.068;8.154;2023-04-01T04:44:33;10.50;99.90
3638;DHT22;1835;50.068;8.154;2023-04-01T04:47:02;10.20;99.90
3638;DHT22;1835;50.068;8.154;2023-04-01T04:49:30;10.20;99.90
3638;DHT22;1835;50.068;8.154;2023-04-01T04:51:58;10.40;99.90
3638;DHT22;1835;50.068;8.154;2023-04-01T04:54:27;10.50;99.90
3638;DHT22;1835;50.068;8.154;2023-04-01T04:56:56;10.50;99.90
3638;DHT22;1835;50.068;8.154;2023-04-01T04:59:24;10.50;99.90
3638;DHT22;1835;50.068;8.154;2023-04-01T05:01:53;10.60;99.90
3638;DHT22;1835;50.068;8.154;2023-04-01T05:04:21;10.50;99.90
3638;DHT22;1835;50.068;8.154;2023-04-01T05:06:49;10.50;99.90
3638;DHT22;1835;50.068;8.154;2023-04-01T05:09:18;10.30;99.90
3638;DHT22;1835;50.068;8.154;2023-04-01T05:11:47;10.20;99.90
3638;DHT22;1835;50.068;8.154;2023-04-01T05:14:16;10.10;99.90
3638;DHT22;1835;50.068;8.154;2023-04-01T05:16:44;10.20;99.90
3638;DHT22;1835;50.068;8.154;2023-04-01T05:19:12;10.10;99.90
3638;DHT22;1835;50.068;8.154;2023-04-01T05:21:40;10.20;99.90
3638;DHT22;1835;50.068;8.154;2023-04-01T05:24:08;10.20;99.90
3638;DHT22;1835;50.068;8.154;2023-04-01T05:26:36;10.30;99.90
3638;DHT22;1835;50.068;8.154;2023-04-01T05:29:06;10.20;99.90
3638;DHT22;1835;50.068;8.154;2023-04-01T05:31:34;10.30;99.90
3638;DHT22;1835;50.068;8.154;2023-04-01T05:34:02;10.30;99.90
3638;DHT22;1835;50.068;8.154;2023-04-01T05:36:30;10.40;99.90
3638;DHT22;1835;50.068;8.154;2023-04-01T05:38:58;10.30;99.90
3638;DHT22;1835;50.068;8.154;2023-04-01T05:41:26;10.40;99.90
3638;DHT22;1835;50.068;8.154;2023-04-01T05:43:55;10.30;99.90
3638;DHT22;1835;50.068;8.154;2023-04-01T05:46:24;10.40;99.90
3638;DHT22;1835;50.068;8.154;2023-04-01T05:48:52;10.40;99.90
3638;DHT22;1835;50.068;8.154;2023-04-01T05:51:20;10.30;99.90
3638;DHT22;1835;50.068;8.154;2023-04-01T05:53:48;10.20;99.90
3638;DHT22;1835;50.068;8.154;2023-04-01T05:56:16;10.30;99.90
3638;DHT22;1835;50.068;8.154;2023-04-01T05:58:46;10.30;99.90
3638;DHT22;1835;50.068;8.154;2023-04-01T06:01:19;10.30;99.90
3638;DHT22;1835;50.068;8.154;2023-04-01T06:03:49;10.20;99.90
3638;DHT22;1835;50.068;8.154;2023-04-01T06:06:22;10.20;99.90
3638;DHT22;1835;50.068;8.154;2023-04-01T06:08:52;10.40;99.90
3638;DHT22;1835;50.068;8.154;2023-04-01T06:11:28;10.50;99.90
3638;DHT22;1835;50.068;8.154;2023-04-01T06:14:19;10.20;99.90
3638;DHT22;1835;50.068;8.154;2023-04-01T06:17:07;10.40;99.90
3638;DHT22;1835;50.068;8.154;2023-04-01T06:19:50;10.50;99.90
3638;DHT22;1835;50.068;8.154;2023-04-01T06:22:36;10.60;99.90
3638;DHT22;1835;50.068;8.154;2023-04-01T06:25:29;10.50;99.90
3638;DHT22;1835;50.068;8.154;2023-04-01T06:28:16;10.50;99.90
3638;DHT22;1835;50.068;8.154;2023-04-01T06:31:28;10.40;99.90
3638;DHT22;1835;50.068;8.154;2023-04-01T06:37:41;10.60;99.90
3638;DHT22;1835;50.068;8.154;2023-04-01T06:40:34;10.50;99.90
3638;DHT22;1835;50.068;8.154;2023-04-01T06:43:16;10.60;99.90
3638;DHT22;1835;50.068;8.154;2023-04-01T06:45:51;10.60;99.90
3638;DHT22;1835;50.068;8.154;2023-04-01T06:48:40;10.50;99.90
3638;DHT22;1835;50.068;8.154;2023-04-01T06:51:22;10.50;99.90
3638;DHT22;1835;50.068;8.154;2023-04-01T06:53:58;10.40;99.90
3638;DHT22;1835;50.068;8.154;2023-04-01T06:56:32;10.40;99.90
3638;DHT22;1835;50.068;8.154;2023-04-01T06:59:04;10.50;99.90
3638;DHT22;1835;50.068;8.154;2023-04-01T07:01:37;10.70;99.90
3638;DHT22;1835;50.068;8.154;2023-04-01T07:04:13;10.80;99.90
3638;DHT22;1835;50.068;8.154;2023-04-01T07:06:47;10.70;99.90
3638;DHT22;1835;50.068;8.154;2023-04-01T07:09:20;10.70;99.90
3638;DHT22;1835;50.068;8.154;2023-04-01T07:11:50;10.50;99.90
3638;DHT22;1835;50.068;8.154;2023-04-01T07:14:23;10.50;99.90
3638;DHT22;1835;50.068;8.154;2023-04-01T07:16:59;10.50;99.90
3638;DHT22;1835;50.068;8.154;2023-04-01T07:19:32;10.70;99.90
3638;DHT22;1835;50.068;8.154;2023-04-01T07:22:05;10.60;99.90
3638;DHT22;1835;50.068;8.154;2023-04-01T07:24:44;10.70;99.90
3638;DHT22;1835;50.068;8.154;2023-04-01T07:27:14;10.70;99.90
3638;DHT22;1835;50.068;8.154;2023-04-01T07:29:42;10.70;99.90
3638;DHT22;1835;50.068;8.154;2023-04-01T07:32:17;10.80;99.90
3638;DHT22;1835;50.068;8.154;2023-04-01T07:34:56;10.90;99.90
3638;DHT22;1835;50.068;8.154;2023-04-01T07:37:45;10.90;99.90
3638;DHT22;1835;50.068;8.154;2023-04-01T07:40:26;11.20;99.90
3638;DHT22;1835;50.068;8.154;2023-04-01T07:43:15;11.10;99.90
3638;DHT22;1835;50.068;8.154;2023-04-01T07:46:07;11.40;99.90
3638;DHT22;1835;50.068;8.154;2023-04-01T07:48:48;11.40;99.90
3638;DHT22;1835;50.068;8.154;2023-04-01T07:51:22;11.30;99.90
3638;DHT22;1835;50.068;8.154;2023-04-01T07:54:03;11.30;99.90
3638;DHT22;1835;50.068;8.154;2023-04-01T07:56:40;11.20;99.90
3638;DHT22;1835;50.068;8.154;2023-04-01T07:59:15;11.30;99.90
3638;DHT22;1835;50.068;8.154;2023-04-01T08:01:50;11.30;99.90
3638;DHT22;1835;50.068;8.154;2023-04-01T08:04:28;11.20;99.90
3638;DHT22;1835;50.068;8.154;2023-04-01T08:07:08;11.30;99.90
3638;DHT22;1835;50.068;8.154;2023-04-01T08:09:44;11.20;99.90
3638;DHT22;1835;50.068;8.154;2023-04-01T08:12:25;11.20;99.90
3638;DHT22;1835;50.068;8.154;2023-04-01T08:15:06;11.10;99.90
3638;DHT22;1835;50.068;8.154;2023-04-01T08:17:46;11.20;99.90
3638;DHT22;1835;50.068;8.154;2023-04-01T08:20:28;11.30;99.90
3638;DHT22;1835;50.068;8.154;2023-04-01T08:23:04;11.00;99.90
3638;DHT22;1835;50.068;8.154;2023-04-01T08:25:38;11.10;99.90
3638;DHT22;1835;50.068;8.154;2023-04-01T08:28:13;11.20;99.90
3638;DHT22;1835;50.068;8.154;2023-04-01T08:30:47;11.30;99.90
3638;DHT22;1835;50.068;8.154;2023-04-01T08:33:20;11.30;99.90
3638;DHT22;1835;50.068;8.154;2023-04-01T08:35:54;11.20;99.90
3638;DHT22;1835;50.068;8.154;2023-04-01T08:38:29;11.30;99.90
3638;DHT22;1835;50.068;8.154;2023-04-01T08:41:18;11.20;99.90
3638;DHT22;1835;50.068;8.154;2023-04-01T08:47:32;11.40;99.90
3638;DHT22;1835;50.068;8.154;2023-04-01T08:50:36;11.40;99.90
3638;DHT22;1835;50.068;8.154;2023-04-01T08:53:46;11.30;99.90
3638;DHT22;1835;50.068;8.154;2023-04-01T08:56:27;11.30;99.90
3638;DHT22;1835;50.068;8.154;2023-04-01T08:59:16;11.40;99.90
3638;DHT22;1835;50.068;8.154;2023-04-01T09:02:01;11.40;99.90
3638;DHT22;1835;50.068;8.154;2023-04-01T09:05:04;11.40;99.90
3638;DHT22;1835;50.068;8.154;2023-04-01T09:07:45;11.50;99.90
3638;DHT22;1835;50.068;8.154;2023-04-01T09:10:54;11.50;99.90
3638;DHT22;1835;50.068;8.154;2023-04-01T09:13:39;11.70;99.90
3638;DHT22;1835;50.068;8.154;2023-04-01T09:16:38;11.50;99.90
3638;DHT22;1835;50.068;8.154;2023-04-01T09:19:37;11.50;99.90
3638;DHT22;1835;50.068;8.154;2023-04-01T09:22:28;11.60;99.90
3638;DHT22;1835;50.068;8.154;2023-04-01T09:25:21;11.60;99.90
3638;DHT22;1835;50.068;8.154;2023-04-01T09:27:57;11.60;99.90
3638;DHT22;1835;50.068;8.154;2023-04-01T09:30:54;11.70;99.90
3638;DHT22;1835;50.068;8.154;2023-04-01T09:36:50;11.90;99.90
3638;DHT22;1835;50.068;8.154;2023-04-01T09:39:35;12.00;99.90
3638;DHT22;1835;50.068;8.154;2023-04-01T09:42:21;12.10;99.90
3638;DHT22;1835;50.068;8.154;2023-04-01T09:45:01;12.20;99.90
3638;DHT22;1835;50.068;8.154;2023-04-01T09:47:49;12.30;99.90
3638;DHT22;1835;50.068;8.154;2023-04-01T09:50:31;12.30;99.90
3638;DHT22;1835;50.068;8.154;2023-04-01T09:53:14;12.50;99.90
3638;DHT22;1835;50.068;8.154;2023-04-01T09:59:56;12.20;99.90
3638;DHT22;1835;50.068;8.154;2023-04-01T10:03:47;12.20;99.90
3638;DHT22;1835;50.068;8.154;2023-04-01T10:06:54;12.20;99.90
3638;DHT22;1835;50.068;8.154;2023-04-01T10:10:20;12.20;99.90
3638;DHT22;1835;50.068;8.154;2023-04-01T10:13:32;12.40;99.90
3638;DHT22;1835;50.068;8.154;2023-04-01T10:16:37;12.50;99.90
3638;DHT22;1835;50.068;8.154;2023-04-01T10:22:28;12.50;99.90
3638;DHT22;1835;50.068;8.154;2023-04-01T10:25:19;12.60;99.90
3638;DHT22;1835;50.068;8.154;2023-04-01T10:31:35;12.60;99.90
3638;DHT22;1835;50.068;8.154;2023-04-01T10:37:58;12.70;99.90
3638;DHT22;1835;50.068;8.154;2023-04-01T10:40:53;12.80;99.90
3638;DHT22;1835;50.068;8.154;2023-04-01T10:43:55;12.80;99.90
3638;DHT22;1835;50.068;8.154;2023-04-01T10:46:54;12.80;99.90
3638;DHT22;1835;50.068;8.154;2023-04-01T10:49:46;12.90;99.90
3638;DHT22;1835;50.068;8.154;2023-04-01T11:02:45;13.60;99.90
3638;DHT22;1835;50.068;8.154;2023-04-01T11:12:45;13.80;99.90
3638;DHT22;1835;50.068;8.154;2023-04-01T11:15:49;13.70;99.90
3638;DHT22;1835;50.068;8.154;2023-04-01T11:19:09;13.60;99.90
3638;DHT22;1835;50.068;8.154;2023-04-01T11:22:34;13.80;99.90
3638;DHT22;1835;50.068;8.154;2023-04-01T11:25:35;13.50;99.90
3638;DHT22;1835;50.068;8.154;2023-04-01T11:31:43;13.20;99.90
3638;DHT22;1835;50.068;8.154;2023-04-01T11:34:26;13.20;99.90
3638;DHT22;1835;50.068;8.154;2023-04-01T11:37:10;13.30;99.90
3638;DHT22;1835;50.068;8.154;2023-04-01T11:39:49;13.40;99.90
3638;DHT22;1835;50.068;8.154;2023-04-01T11:42:36;13.40;99.90
3638;DHT22;1835;50.068;8.154;2023-04-01T11:45:17;13.10;99.90
3638;DHT22;1835;50.068;8.154;2023-04-01T11:48:09;13.20;99.90
3638;DHT22;1835;50.068;8.154;2023-04-01T11:50:56;13.40;99.90
3638;DHT22;1835;50.068;8.154;2023-04-01T11:53:44;13.40;99.90
3638;DHT22;1835;50.068;8.154;2023-04-01T11:56:28;13.30;99.90
3638;DHT22;1835;50.068;8.154;2023-04-01T11:59:28;13.30;99.90
3638;DHT22;1835;50.068;8.154;2023-04-01T12:02:12;13.30;99.90
3638;DHT22;1835;50.068;8.154;2023-04-01T12:04:58;13.30;99.90
3638;DHT22;1835;50.068;8.154;2023-04-01T12:07:45;13.00;99.90
3638;DHT22;1835;50.068;8.154;2023-04-01T12:10:26;13.00;99.90
3638;DHT22;1835;50.068;8.154;2023-04-01T12:13:04;13.20;99.90
3638;DHT22;1835;50.068;8.154;2023-04-01T12:15:54;12.80;99.90
3638;DHT22;1835;50.068;8.154;2023-04-01T12:18:38;12.90;99.90
3638;DHT22;1835;50.068;8.154;2023-04-01T12:21:17;13.10;99.90
3638;DHT22;1835;50.068;8.154;2023-04-01T12:24:05;13.20;99.90
3638;DHT22;1835;50.068;8.154;2023-04-01T12:26:59;13.30;99.90
3638;DHT22;1835;50.068;8.154;2023-04-01T12:29:49;13.40;99.90
3638;DHT22;1835;50.068;8.154;2023-04-01T12:32:32;13.40;99.90
3638;DHT22;1835;50.068;8.154;2023-04-01T12:35:15;13.30;99.90
3638;DHT22;1835;50.068;8.154;2023-04-01T12:37:54;13.40;99.90
3638;DHT22;1835;50.068;8.154;2023-04-01T12:40:40;13.20;99.90
3638;DHT22;1835;50.068;8.154;2023-04-01T12:43:28;13.40;99.90
3638;DHT22;1835;50.068;8.154;2023-04-01T12:46:19;13.50;99.90
3638;DHT22;1835;50.068;8.154;2023-04-01T12:49:12;13.70;99.90
3638;DHT22;1835;50.068;8.154;2023-04-01T12:52:04;13.70;99.90
3638;DHT22;1835;50.068;8.154;2023-04-01T12:58:22;13.80;99.90
3638;DHT22;1835;50.068;8.154;2023-04-01T13:01:25;13.90;99.90
3638;DHT22;1835;50.068;8.154;2023-04-01T13:10:31;14.00;99.90
3638;DHT22;1835;50.068;8.154;2023-04-01T13:13:32;14.20;99.90
3638;DHT22;1835;50.068;8.154;2023-04-01T13:16:19;14.10;99.90
3638;DHT22;1835;50.068;8.154;2023-04-01T13:18:58;13.80;99.90
3638;DHT22;1835;50.068;8.154;2023-04-01T13:21:40;13.50;99.90
3638;DHT22;1835;50.068;8.154;2023-04-01T13:24:28;13.40;99.90
3638;DHT22;1835;50.068;8.154;2023-04-01T13:27:08;13.50;99.90
3638;DHT22;1835;50.068;8.154;2023-04-01T13:29:43;13.80;99.90
3638;DHT22;1835;50.068;8.154;2023-04-01T13:32:29;13.70;99.90
3638;DHT22;1835;50.068;8.154;2023-04-01T13:35:16;13.50;99.90
3638;DHT22;1835;50.068;8.154;2023-04-01T13:38:03;13.30;99.90
3638;DHT22;1835;50.068;8.154;2023-04-01T13:40:49;13.30;99.90
3638;DHT22;1835;50.068;8.154;2023-04-01T13:43:31;13.40;99.90
3638;DHT22;1835;50.068;8.154;2023-04-01T13:46:22;13.40;99.90
3638;DHT22;1835;50.068;8.154;2023-04-01T13:49:34;13.10;99.90
3638;DHT22;1835;50.068;8.154;2023-04-01T13:52:41;13.10;99.90
3638;DHT22;1835;50.068;8.154;2023-04-01T13:55:50;12.90;99.90
3638;DHT22;1835;50.068;8.154;2023-04-01T13:58:43;13.00;99.90
3638;DHT22;1835;50.068;8.154;2023-04-01T14:01:21;12.90;99.90
3638;DHT22;1835;50.068;8.154;2023-04-01T14:04:33;12.90;99.90
3638;DHT22;1835;50.068;8.154;2023-04-01T14:07:22;12.90;99.90
3638;DHT22;1835;50.068;8.154;2023-04-01T14:10:18;12.80;99.90
3638;DHT22;1835;50.068;8.154;2023-04-01T14:12:58;13.00;99.90
3638;DHT22;1835;50.068;8.154;2023-04-01T14:15:42;13.20;99.90
3638;DHT22;1835;50.068;8.154;2023-04-01T14:18:37;13.20;99.90
3638;DHT22;1835;50.068;8.154;2023-04-01T14:21:23;13.50;99.90
3638;DHT22;1835;50.068;8.154;2023-04-01T14:24:17;13.70;99.90
3638;DHT22;1835;50.068;8.154;2023-04-01T14:33:28;13.10;99.90
3638;DHT22;1835;50.068;8.154;2023-04-01T14:36:26;13.00;99.90
3638;DHT22;1835;50.068;8.154;2023-04-01T14:39:15;12.90;99.90
3638;DHT22;1835;50.068;8.154;2023-04-01T14:42:03;12.80;99.90
3638;DHT22;1835;50.068;8.154;2023-04-01T14:48:13;12.80;99.90
3638;DHT22;1835;50.068;8.154;2023-04-01T14:50:47;13.00;99.90
3638;DHT22;1835;50.068;8.154;2023-04-01T14:53:27;13.10;99.90
3638;DHT22;1835;50.068;8.154;2023-04-01T14:55:57;13.10;99.90
3638;DHT22;1835;50.068;8.154;2023-04-01T14:58:43;13.00;99.90
3638;DHT22;1835;50.068;8.154;2023-04-01T15:01:31;12.90;99.90
3638;DHT22;1835;50.068;8.154;2023-04-01T15:04:21;12.90;99.90
3638;DHT22;1835;50.068;8.154;2023-04-01T15:11:22;13.00;99.90
3638;DHT22;1835;50.068;8.154;2023-04-01T15:14:35;13.20;99.90
3638;DHT22;1835;50.068;8.154;2023-04-01T15:17:28;13.40;99.90
3638;DHT22;1835;50.068;8.154;2023-04-01T15:20:22;13.40;99.90
3638;DHT22;1835;50.068;8.154;2023-04-01T15:23:20;13.30;99.90
3638;DHT22;1835;50.068;8.154;2023-04-01T15:26:11;13.40;99.90
3638;DHT22;1835;50.068;8.154;2023-04-01T15:28:53;13.30;99.90
3638;DHT22;1835;50.068;8.154;2023-04-01T15:31:36;13.20;99.90
3638;DHT22;1835;50.068;8.154;2023-04-01T15:34:24;13.20;99.90
3638;DHT22;1835;50.068;8.154;2023-04-01T15:37:00;13.00;99.90
3638;DHT22;1835;50.068;8.154;2023-04-01T15:39:42;13.00;99.90
3638;DHT22;1835;50.068;8.154;2023-04-01T15:42:24;13.00;99.90
3638;DHT22;1835;50.068;8.154;2023-04-01T15:45:12;13.10;99.90
3638;DHT22;1835;50.068;8.154;2023-04-01T15:47:56;13.20;99.90
3638;DHT22;1835;50.068;8.154;2023-04-01T15:50:46;13.20;99.90
3638;DHT22;1835;50.068;8.154;2023-04-01T15:53:44;13.20;99.90
3638;DHT22;1835;50.068;8.154;2023-04-01T15:56:28;13.30;99.90
3638;DHT22;1835;50.068;8.154;2023-04-01T15:59:24;13.10;99.90
3638;DHT22;1835;50.068;8.154;2023-04-01T16:02:12;13.00;99.90
3638;DHT22;1835;50.068;8.154;2023-04-01T16:04:55;12.90;99.90
3638;DHT22;1835;50.068;8.154;2023-04-01T16:07:47;13.00;99.90
3638;DHT22;1835;50.068;8.154;2023-04-01T16:10:36;13.00;99.90
3638;DHT22;1835;50.068;8.154;2023-04-01T16:13:24;13.10;99.90
3638;DHT22;1835;50.068;8.154;2023-04-01T16:16:07;13.10;99.90
3638;DHT22;1835;50.068;8.154;2023-04-01T16:19:09;13.10;99.90
3638;DHT22;1835;50.068;8.154;2023-04-01T16:22:00;13.10;99.90
3638;DHT22;1835;50.068;8.154;2023-04-01T16:24:37;13.00;99.90
3638;DHT22;1835;50.068;8.154;2023-04-01T16:27:12;12.90;99.90
3638;DHT22;1835;50.068;8.154;2023-04-01T16:29:46;12.90;99.90
3638;DHT22;1835;50.068;8.154;2023-04-01T16:32:29;12.90;99.90
3638;DHT22;1835;50.068;8.154;2023-04-01T16:35:15;13.00;99.90
3638;DHT22;1835;50.068;8.154;2023-04-01T16:37:53;12.70;99.90
3638;DHT22;1835;50.068;8.154;2023-04-01T16:40:41;12.60;99.90
3638;DHT22;1835;50.068;8.154;2023-04-01T16:43:19;12.80;99.90
3638;DHT22;1835;50.068;8.154;2023-04-01T16:45:57;12.90;99.90
3638;DHT22;1835;50.068;8.154;2023-04-01T16:49:04;12.60;99.90
3638;DHT22;1835;50.068;8.154;2023-04-01T16:51:47;12.30;99.90
3638;DHT22;1835;50.068;8.154;2023-04-01T16:54:28;12.30;99.90
3638;DHT22;1835;50.068;8.154;2023-04-01T16:57:04;12.40;99.90
3638;DHT22;1835;50.068;8.154;2023-04-01T16:59:47;12.20;99.90
3638;DHT22;1835;50.068;8.154;2023-04-01T17:02:23;12.20;99.90
3638;DHT22;1835;50.068;8.154;2023-04-01T17:04:58;12.20;99.90
3638;DHT22;1835;50.068;8.154;2023-04-01T17:07:38;12.10;99.90
3638;DHT22;1835;50.068;8.154;2023-04-01T17:10:39;11.80;99.90
3638;DHT22;1835;50.068;8.154;2023-04-01T17:13:34;12.10;99.90
3638;DHT22;1835;50.068;8.154;2023-04-01T17:16:41;12.00;99.90
3638;DHT22;1835;50.068;8.154;2023-04-01T17:19:34;12.00;99.90
3638;DHT22;1835;50.068;8.154;2023-04-01T17:22:22;12.00;99.90
3638;DHT22;1835;50.068;8.154;2023-04-01T17:25:07;12.00;99.90
3638;DHT22;1835;50.068;8.154;2023-04-01T17:27:47;12.00;99.90
3638;DHT22;1835;50.068;8.154;2023-04-01T17:30:28;11.90;99.90
3638;DHT22;1835;50.068;8.154;2023-04-01T17:33:16;12.00;99.90
3638;DHT22;1835;50.068;8.154;2023-04-01T17:36:09;12.00;99.90
3638;DHT22;1835;50.068;8.154;2023-04-01T17:39:07;12.10;99.90
3638;DHT22;1835;50.068;8.154;2023-04-01T17:41:50;12.10;99.90
3638;DHT22;1835;50.068;8.154;2023-04-01T17:44:38;11.90;99.90
3638;DHT22;1835;50.068;8.154;2023-04-01T17:47:28;11.70;99.90
3638;DHT22;1835;50.068;8.154;2023-04-01T17:50:09;11.70;99.90
3638;DHT22;1835;50.068;8.154;2023-04-01T17:53:01;11.60;99.90
3638;DHT22;1835;50.068;8.154;2023-04-01T17:55:50;11.70;99.90
3638;DHT22;1835;50.068;8.154;2023-04-01T17:58:29;12.00;99.90
3638;DHT22;1835;50.068;8.154;2023-04-01T18:01:09;11.90;99.90
3638;DHT22;1835;50.068;8.154;2023-04-01T18:03:54;11.80;99.90
3638;DHT22;1835;50.068;8.154;2023-04-01T18:06:35;11.80;99.90
3638;DHT22;1835;50.068;8.154;2023-04-01T18:09:15;11.70;99.90
3638;DHT22;1835;50.068;8.154;2023-04-01T18:11:54;11.80;99.90
3638;DHT22;1835;50.068;8.154;2023-04-01T18:17:45;11.30;99.90
3638;DHT22;1835;50.068;8.154;2023-04-01T18:20:33;11.20;99.90
3638;DHT22;1835;50.068;8.154;2023-04-01T18:23:14;11.10;99.90
3638;DHT22;1835;50.068;8.154;2023-04-01T18:25:53;11.20;99.90
3638;DHT22;1835;50.068;8.154;2023-04-01T18:28:32;11.10;99.90
3638;DHT22;1835;50.068;8.154;2023-04-01T18:31:15;11.40;99.90
3638;DHT22;1835;50.068;8.154;2023-04-01T18:33:50;11.20;99.90
3638;DHT22;1835;50.068;8.154;2023-04-01T18:36:38;11.00;99.90
3638;DHT22;1835;50.068;8.154;2023-04-01T18:39:12;10.90;99.90
3638;DHT22;1835;50.068;8.154;2023-04-01T18:41:51;10.80;99.90